Rogers City, MI

5:28 PM EDT on August 28, 2016 (GMT -0400)
Presque Isle County

Weather History for KPZQ - August, 2014

Change the Weather History Date:

Thursday, August 14, 2014

  Actual Average (KAPN) Record (KAPN)
Temperature  
Mean Temperature 56 °F 66 °F  
Max Temperature 63 °F 78 °F 95 °F (1965)
Min Temperature 50 °F 54 °F 35 °F (1961)
Degree Days  
Heating Degree Days 8 2  
Month to date heating degree days 24  
Since 1 June heating degree days 211  
Since 1 July heating degree days 68  
Cooling Degree Days 0 3  
Month to date cooling degree days 43  
Year to date cooling degree days 228  
Since 1 June cooling degree days 215  
Growing Degree Days 6 (Base 50)    
Moisture  
Dew Point 47 °F    
Average Humidity 68    
Maximum Humidity 86    
Minimum Humidity 54    
Precipitation  
Precipitation 0.00 in 0.11 in 1.38 in (1989)
Month to date precipitation 1.39  
Year to date precipitation 16.94  
Sea Level Pressure  
Sea Level Pressure 30.00 in    
Wind  
Wind Speed 12 mph (NW)    
Max Wind Speed 22 mph    
Max Gust Speed 30 mph    
Visibility 10 miles    
Events      
T = Trace of Precipitation, MM = Missing Value Source: NWS Daily Summary

Daily Weather History Graph

Daily Weather History Graph

Search for Another Location

Airport or City:

Trip Planner

Search our weather history database for the weather conditions in past years. The results will help you decide how hot, cold, wet, or windy it might be!

Date:

Astronomy

Aug. 14, 2014 Rise Set
Actual Time 6:34 AM EDT 8:44 PM EDT
Civil Twilight 6:02 AM EDT 9:16 PM EDT
Nautical Twilight 5:22 AM EDT 9:56 PM EDT
Astronomical Twilight 4:37 AM EDT 10:40 PM EDT
Moon 10:49 PM EDT (8/14) 11:26 AM EDT (8/14)
Length of Visible Light 15h 13m
Length of Day
14h 09m
Waning Gibbous, 79% of the Moon is Illuminated
Aug 14
Waning Gibbous
Aug 17
Last Quarter
Aug 25
New
Sep 2
First Quarter
Sep 8
Full

Hourly Weather History & Observations

Time (EDT) Temp. Dew Point Humidity Pressure Visibility Wind Dir Wind Speed Gust Speed Precip Events Conditions
12:15 AM 54.7 °F 47.3 °F 76% 30.03 in 10.0 mi North 12.7 mph 19.6 mph N/A   Scattered Clouds
12:34 AM 54.5 °F 47.1 °F 76% 30.03 in 10.0 mi NNW 9.2 mph 17.3 mph N/A   Mostly Cloudy
12:55 AM 54.7 °F 47.3 °F 76% 30.03 in 10.0 mi NNW 12.7 mph 18.4 mph N/A   Scattered Clouds
1:14 AM 54.7 °F 47.5 °F 77% 30.02 in 10.0 mi NW 10.4 mph - N/A   Mostly Cloudy
1:34 AM 54.9 °F 47.5 °F 76% 30.03 in 10.0 mi NW 8.1 mph - N/A   Overcast
1:55 AM 54.9 °F 49.1 °F 81% 30.03 in 10.0 mi NW 9.2 mph - N/A   Overcast
2:14 AM 54.5 °F 49.3 °F 83% 30.02 in 10.0 mi NW 8.1 mph 17.3 mph N/A   Mostly Cloudy
2:35 AM 54.5 °F 48.0 °F 79% 30.02 in 10.0 mi NNW 12.7 mph - N/A   Clear
2:55 AM 54.7 °F 48.2 °F 79% 30.02 in 10.0 mi NNW 10.4 mph 16.1 mph N/A   Scattered Clouds
3:14 AM 54.5 °F 48.4 °F 80% 30.02 in 10.0 mi NNW 11.5 mph - N/A   Scattered Clouds
3:35 AM 54.5 °F 49.1 °F 82% 30.02 in 10.0 mi NNW 10.4 mph 21.9 mph N/A   Clear
3:54 AM 54.5 °F 47.8 °F 78% 30.02 in 10.0 mi NNW 11.5 mph 18.4 mph N/A   Scattered Clouds
4:14 AM 53.8 °F 47.7 °F 80% 30.01 in 10.0 mi North 12.7 mph 19.6 mph N/A   Scattered Clouds
4:35 AM 53.6 °F 47.7 °F 80% 30.01 in 10.0 mi North 12.7 mph - N/A   Clear
4:54 AM 53.6 °F 47.3 °F 79% 30.01 in 10.0 mi NNW 9.2 mph 16.1 mph N/A   Clear
5:15 AM 53.6 °F 47.1 °F 79% 30.01 in 10.0 mi NNW 10.4 mph - N/A   Clear
5:35 AM 53.6 °F 46.4 °F 77% 30.01 in 10.0 mi NNW 9.2 mph 17.3 mph N/A   Clear
5:54 AM 53.6 °F 46.4 °F 77% 30.01 in 10.0 mi NW 8.1 mph - N/A   Clear
6:15 AM 53.4 °F 45.9 °F 76% 30.01 in 10.0 mi NNW 9.2 mph - N/A   Clear
6:35 AM 53.6 °F 45.5 °F 74% 30.02 in 10.0 mi NW 9.2 mph - N/A   Clear
6:54 AM 52.5 °F 45.7 °F 78% 30.02 in 10.0 mi WNW 5.8 mph - N/A   Clear
7:15 AM 51.3 °F 45.9 °F 82% 30.02 in 10.0 mi West 4.6 mph - N/A   Clear
7:35 AM 50.7 °F 46.8 °F 86% 30.02 in 10.0 mi West 5.8 mph - N/A   Clear
7:54 AM 51.8 °F 47.3 °F 85% 30.02 in 10.0 mi NW 5.8 mph - N/A   Scattered Clouds
8:15 AM 56.5 °F 47.1 °F 71% 30.02 in 10.0 mi NNW 16.1 mph 21.9 mph N/A   Mostly Cloudy
8:34 AM 55.6 °F 47.7 °F 75% 30.02 in 10.0 mi NNW 13.8 mph 24.2 mph N/A   Overcast
8:55 AM 55.0 °F 49.8 °F 83% 30.02 in 10.0 mi NW 10.4 mph 17.3 mph N/A   Overcast
9:14 AM 56.5 °F 45.7 °F 67% 30.02 in 10.0 mi NNW 15.0 mph 23.0 mph N/A   Mostly Cloudy
9:35 AM 56.5 °F 45.9 °F 68% 30.02 in 10.0 mi NNW 15.0 mph 19.6 mph N/A   Scattered Clouds
9:55 AM 57.2 °F 44.1 °F 62% 30.02 in 10.0 mi NW 16.1 mph 21.9 mph N/A   Clear
10:14 AM 58.1 °F 45.3 °F 62% 30.02 in 10.0 mi NW 17.3 mph 24.2 mph N/A   Clear
10:35 AM 58.3 °F 43.7 °F 58% 30.02 in 10.0 mi WNW 18.4 mph 27.6 mph N/A   Clear
10:54 AM 58.3 °F 45.1 °F 62% 30.02 in 10.0 mi NW 19.6 mph 26.5 mph N/A   Clear
11:15 AM 58.5 °F 44.8 °F 60% 30.02 in 10.0 mi NW 21.9 mph 26.5 mph N/A   Clear
11:34 AM 59.0 °F 45.5 °F 61% 30.01 in 10.0 mi WNW 18.4 mph 26.5 mph N/A   Clear
11:55 AM 59.5 °F 46.6 °F 62% 30.02 in 10.0 mi NNW 15.0 mph 28.8 mph N/A   Clear
12:15 PM 57.9 °F 46.9 °F 67% 30.02 in 10.0 mi NW 15.0 mph 27.6 mph N/A   Scattered Clouds
12:35 PM 60.1 °F 46.9 °F 62% 30.01 in 10.0 mi WNW 15.0 mph 26.5 mph N/A   Clear
12:54 PM 59.9 °F 46.6 °F 61% 30.01 in 10.0 mi WNW 17.3 mph 28.8 mph N/A   Clear
1:15 PM 60.6 °F 46.6 °F 60% 30.00 in 10.0 mi NW 11.5 mph 25.3 mph N/A   Clear
1:34 PM 60.1 °F 45.9 °F 59% 30.00 in 10.0 mi NW 18.4 mph 26.5 mph N/A   Clear
1:55 PM 60.8 °F 45.9 °F 58% 30.00 in 10.0 mi NW 15.0 mph 26.5 mph N/A   Clear
2:15 PM 61.0 °F 45.1 °F 56% 30.00 in 10.0 mi WNW 19.6 mph 29.9 mph N/A   Clear
2:34 PM 60.3 °F 44.8 °F 57% 29.99 in 10.0 mi NNW 13.8 mph 23.0 mph N/A   Clear
2:55 PM 60.8 °F 45.5 °F 57% 29.98 in 10.0 mi NW 10.4 mph 17.3 mph N/A   Clear
3:15 PM 62.6 °F 45.5 °F 54% 29.98 in 10.0 mi NW 12.7 mph 24.2 mph N/A   Clear
3:34 PM 63.1 °F 47.5 °F 57% 29.98 in 10.0 mi NNW 15.0 mph 20.7 mph N/A   Clear
3:55 PM 63.1 °F 46.6 °F 55% 29.98 in 10.0 mi NW 13.8 mph 24.2 mph N/A   Clear
4:14 PM 63.3 °F 47.8 °F 57% 29.98 in 10.0 mi NNW 15.0 mph 25.3 mph N/A   Clear
4:35 PM 63.5 °F 47.7 °F 56% 29.98 in 10.0 mi NNW 15.0 mph 21.9 mph N/A   Clear
4:54 PM 63.1 °F 46.4 °F 54% 29.98 in 10.0 mi NNW 17.3 mph 26.5 mph N/A   Clear
5:15 PM 62.8 °F 47.1 °F 57% 29.99 in 10.0 mi NNW 15.0 mph 24.2 mph N/A   Clear
5:35 PM 62.8 °F 47.7 °F 58% 29.99 in 10.0 mi NW 17.3 mph 28.8 mph N/A   Clear
5:55 PM 63.0 °F 46.6 °F 55% 29.98 in 10.0 mi NW 15.0 mph 24.2 mph N/A   Clear
6:14 PM 62.2 °F 45.9 °F 55% 29.99 in 10.0 mi WNW 10.4 mph 20.7 mph N/A   Clear
6:35 PM 62.6 °F 46.2 °F 55% 29.99 in 10.0 mi NW 13.8 mph 20.7 mph N/A   Clear
6:55 PM 62.8 °F 46.0 °F 54% 29.98 in 10.0 mi WNW 13.8 mph 21.9 mph N/A   Scattered Clouds
7:14 PM 62.2 °F 45.7 °F 55% 29.98 in 10.0 mi NW 12.7 mph 24.2 mph N/A   Clear
7:35 PM 61.3 °F 46.0 °F 57% 29.98 in 10.0 mi WNW 10.4 mph 17.3 mph N/A   Clear
7:55 PM 61.3 °F 46.6 °F 58% 29.98 in 10.0 mi NW 9.2 mph 16.1 mph N/A   Clear
8:14 PM 60.8 °F 46.6 °F 59% 29.98 in 10.0 mi NW 10.4 mph 17.3 mph N/A   Clear
8:35 PM 59.5 °F 46.4 °F 62% 29.98 in 10.0 mi WNW 8.1 mph - N/A   Clear
8:55 PM 58.6 °F 46.4 °F 64% 29.99 in 10.0 mi NW 9.2 mph 16.1 mph N/A   Clear
9:14 PM 58.8 °F 46.9 °F 65% 29.98 in 10.0 mi WNW 11.5 mph 18.4 mph N/A   Clear
9:35 PM 58.1 °F 47.1 °F 67% 29.99 in 10.0 mi NW 10.4 mph 16.1 mph N/A   Clear
9:55 PM 57.6 °F 47.3 °F 69% 29.99 in 10.0 mi WNW 6.9 mph - N/A   Clear
10:14 PM 56.7 °F 46.8 °F 69% 29.99 in 10.0 mi WNW 6.9 mph - N/A   Clear
10:35 PM 53.6 °F 46.9 °F 78% 29.99 in 10.0 mi West 4.6 mph - N/A   Clear
10:55 PM 53.2 °F 46.4 °F 78% 29.98 in 10.0 mi West 5.8 mph - N/A   Clear
11:14 PM 52.9 °F 45.5 °F 76% 29.99 in 10.0 mi West 5.8 mph - N/A   Clear
11:35 PM 52.7 °F 45.1 °F 75% 29.98 in 10.0 mi West 6.9 mph - N/A   Clear
11:54 PM 52.7 °F 45.0 °F 75% 29.98 in 10.0 mi West 5.8 mph - N/A   Clear